sensor_id;sensor_type;location;lat;lon;timestamp;pressure;altitude;pressure_sealevel;temperature;humidity
59873;BME280;50750;51.636;4.948;2022-12-19T00:00:47;101880.88;;;5.87;58.65
59873;BME280;50750;51.636;4.948;2022-12-19T00:03:24;101878.44;;;5.87;58.62
59873;BME280;50750;51.636;4.948;2022-12-19T00:05:50;101867.48;;;5.87;58.53
59873;BME280;50750;51.636;4.948;2022-12-19T00:08:16;101867.33;;;5.87;58.81
59873;BME280;50750;51.636;4.948;2022-12-19T00:10:42;101870.27;;;5.87;58.73
59873;BME280;50750;51.636;4.948;2022-12-19T00:13:08;101871.83;;;5.87;58.54
59873;BME280;50750;51.636;4.948;2022-12-19T00:15:35;101868.36;;;5.87;58.62
59873;BME280;50750;51.636;4.948;2022-12-19T00:18:01;101868.35;;;5.87;58.67
59873;BME280;50750;51.636;4.948;2022-12-19T00:20:27;101877.39;;;5.87;58.70
59873;BME280;50750;51.636;4.948;2022-12-19T00:22:53;101858.79;;;5.88;58.78
59873;BME280;50750;51.636;4.948;2022-12-19T00:25:18;101857.05;;;5.88;58.82
59873;BME280;50750;51.636;4.948;2022-12-19T00:27:46;101846.97;;;5.88;58.83
59873;BME280;50750;51.636;4.948;2022-12-19T00:30:12;101844.19;;;5.88;58.87
59873;BME280;50750;51.636;4.948;2022-12-19T00:32:38;101837.92;;;5.88;58.81
59873;BME280;50750;51.636;4.948;2022-12-19T00:35:04;101832.02;;;5.88;59.08
59873;BME280;50750;51.636;4.948;2022-12-19T00:37:30;101835.33;;;5.88;58.90
59873;BME280;50750;51.636;4.948;2022-12-19T00:39:56;101838.13;;;5.89;59.03
59873;BME280;50750;51.636;4.948;2022-12-19T00:42:22;101842.80;;;5.89;58.92
59873;BME280;50750;51.636;4.948;2022-12-19T00:44:48;101831.16;;;5.89;58.90
59873;BME280;50750;51.636;4.948;2022-12-19T00:47:14;101823.86;;;5.89;58.88
59873;BME280;50750;51.636;4.948;2022-12-19T00:49:39;101820.56;;;5.90;58.80
59873;BME280;50750;51.636;4.948;2022-12-19T00:52:05;101820.56;;;5.90;58.97
59873;BME280;50750;51.636;4.948;2022-12-19T00:54:31;101816.23;;;5.90;59.17
59873;BME280;50750;51.636;4.948;2022-12-19T00:56:57;101811.87;;;5.90;58.77
59873;BME280;50750;51.636;4.948;2022-12-19T00:59:23;101802.65;;;5.90;58.91
59873;BME280;50750;51.636;4.948;2022-12-19T01:01:49;101809.27;;;5.91;58.77
59873;BME280;50750;51.636;4.948;2022-12-19T01:04:15;101796.40;;;5.91;58.69
59873;BME280;50750;51.636;4.948;2022-12-19T01:06:41;101803.71;;;5.91;59.10
59873;BME280;50750;51.636;4.948;2022-12-19T01:09:08;101792.92;;;5.90;58.91
59873;BME280;50750;51.636;4.948;2022-12-19T01:11:35;101792.06;;;5.91;59.13
59873;BME280;50750;51.636;4.948;2022-12-19T01:14:21;101784.59;;;5.91;59.20
59873;BME280;50750;51.636;4.948;2022-12-19T01:16:48;101791.71;;;5.91;59.07
59873;BME280;50750;51.636;4.948;2022-12-19T01:19:14;101787.03;;;5.92;59.07
59873;BME280;50750;51.636;4.948;2022-12-19T01:21:40;101784.07;;;5.92;59.13
59873;BME280;50750;51.636;4.948;2022-12-19T01:24:06;101781.64;;;5.92;59.09
59873;BME280;50750;51.636;4.948;2022-12-19T01:26:32;101783.90;;;5.92;59.18
59873;BME280;50750;51.636;4.948;2022-12-19T01:28:58;101776.25;;;5.93;59.06
59873;BME280;50750;51.636;4.948;2022-12-19T01:31:25;101776.95;;;5.93;59.14
59873;BME280;50750;51.636;4.948;2022-12-19T01:33:51;101771.05;;;5.93;59.06
59873;BME280;50750;51.636;4.948;2022-12-19T01:36:17;101785.31;;;5.93;59.11
59873;BME280;50750;51.636;4.948;2022-12-19T01:38:42;101765.85;;;5.94;59.09
59873;BME280;50750;51.636;4.948;2022-12-19T01:41:09;101782.20;;;5.94;59.20
59873;BME280;50750;51.636;4.948;2022-12-19T01:44:04;101769.86;;;5.94;59.29
59873;BME280;50750;51.636;4.948;2022-12-19T01:49:04;101767.42;;;5.94;59.31
59873;BME280;50750;51.636;4.948;2022-12-19T01:51:42;101766.73;;;5.94;59.24
59873;BME280;50750;51.636;4.948;2022-12-19T01:54:14;101756.30;;;5.94;59.37
59873;BME280;50750;51.636;4.948;2022-12-19T01:56:46;101761.52;;;5.95;59.28
59873;BME280;50750;51.636;4.948;2022-12-19T01:59:41;101752.31;;;5.95;59.25
59873;BME280;50750;51.636;4.948;2022-12-19T02:02:13;101749.52;;;5.95;59.36
59873;BME280;50750;51.636;4.948;2022-12-19T02:04:41;101745.70;;;5.95;59.29
59873;BME280;50750;51.636;4.948;2022-12-19T02:07:08;101736.30;;;5.96;59.40
59873;BME280;50750;51.636;4.948;2022-12-19T02:09:35;101743.80;;;5.96;59.40
59873;BME280;50750;51.636;4.948;2022-12-19T02:12:02;101737.89;;;5.97;59.30
59873;BME280;50750;51.636;4.948;2022-12-19T02:14:28;101734.76;;;5.97;59.63
59873;BME280;50750;51.636;4.948;2022-12-19T02:17:06;101723.80;;;5.98;59.30
59873;BME280;50750;51.636;4.948;2022-12-19T02:19:54;101723.63;;;5.98;59.41
59873;BME280;50750;51.636;4.948;2022-12-19T02:31:15;101699.28;;;5.98;59.67
59873;BME280;50750;51.636;4.948;2022-12-19T02:33:54;101703.81;;;5.99;59.66
59873;BME280;50750;51.636;4.948;2022-12-19T02:39:25;101697.38;;;6.00;59.59
59873;BME280;50750;51.636;4.948;2022-12-19T02:41:57;101693.54;;;6.00;59.42
59873;BME280;50750;51.636;4.948;2022-12-19T02:44:40;101683.82;;;6.00;59.64
59873;BME280;50750;51.636;4.948;2022-12-19T02:47:09;101679.30;;;6.01;59.53
59873;BME280;50750;51.636;4.948;2022-12-19T02:49:36;101675.64;;;6.01;59.51
59873;BME280;50750;51.636;4.948;2022-12-19T02:55:02;101671.81;;;6.01;59.86
59873;BME280;50750;51.636;4.948;2022-12-19T02:57:45;101670.77;;;6.02;59.61
59873;BME280;50750;51.636;4.948;2022-12-19T03:00:24;101668.86;;;6.02;59.81
59873;BME280;50750;51.636;4.948;2022-12-19T03:03:18;101670.79;;;6.02;59.72
59873;BME280;50750;51.636;4.948;2022-12-19T03:06:15;101668.54;;;6.03;59.79
59873;BME280;50750;51.636;4.948;2022-12-19T03:09:01;101660.52;;;6.03;59.85
59873;BME280;50750;51.636;4.948;2022-12-19T03:11:32;101658.62;;;6.03;59.77
59873;BME280;50750;51.636;4.948;2022-12-19T03:14:02;101657.74;;;6.04;59.89
59873;BME280;50750;51.636;4.948;2022-12-19T03:16:33;101657.05;;;6.04;60.10
59873;BME280;50750;51.636;4.948;2022-12-19T03:19:01;101651.83;;;6.04;60.23
59873;BME280;50750;51.636;4.948;2022-12-19T03:21:38;101650.27;;;6.04;59.94
59873;BME280;50750;51.636;4.948;2022-12-19T03:24:07;101647.14;;;6.05;60.16
59873;BME280;50750;51.636;4.948;2022-12-19T03:27:03;101646.61;;;6.05;60.16
59873;BME280;50750;51.636;4.948;2022-12-19T03:29:37;101648.02;;;6.06;60.16
59873;BME280;50750;51.636;4.948;2022-12-19T03:32:08;101647.15;;;6.05;60.17
59873;BME280;50750;51.636;4.948;2022-12-19T03:34:38;101643.49;;;6.06;60.18
59873;BME280;50750;51.636;4.948;2022-12-19T03:37:09;101643.49;;;6.06;60.25
59873;BME280;50750;51.636;4.948;2022-12-19T03:39:39;101641.59;;;6.07;60.43
59873;BME280;50750;51.636;4.948;2022-12-19T03:42:07;101639.15;;;6.07;60.42
59873;BME280;50750;51.636;4.948;2022-12-19T03:44:54;101634.81;;;6.07;60.21
59873;BME280;50750;51.636;4.948;2022-12-19T03:47:45;101640.20;;;6.08;60.33
59873;BME280;50750;51.636;4.948;2022-12-19T03:50:13;101635.33;;;6.08;60.02
59873;BME280;50750;51.636;4.948;2022-12-19T03:52:55;101638.63;;;6.08;59.90
59873;BME280;50750;51.636;4.948;2022-12-19T03:55:35;101637.42;;;6.08;60.03
59873;BME280;50750;51.636;4.948;2022-12-19T03:58:08;101634.63;;;6.08;59.99
59873;BME280;50750;51.636;4.948;2022-12-19T04:00:36;101633.41;;;6.09;60.16
59873;BME280;50750;51.636;4.948;2022-12-19T04:03:05;101632.36;;;6.09;59.96
59873;BME280;50750;51.636;4.948;2022-12-19T04:05:32;101633.40;;;6.09;59.89
59873;BME280;50750;51.636;4.948;2022-12-19T04:08:03;101631.83;;;6.10;59.85
59873;BME280;50750;51.636;4.948;2022-12-19T04:10:34;101627.84;;;6.10;60.10
59873;BME280;50750;51.636;4.948;2022-12-19T04:13:06;101617.77;;;6.10;59.97
59873;BME280;50750;51.636;4.948;2022-12-19T04:15:50;101621.77;;;6.11;60.06
59873;BME280;50750;51.636;4.948;2022-12-19T04:18:19;101619.34;;;6.10;59.67
59873;BME280;50750;51.636;4.948;2022-12-19T04:20:54;101621.41;;;6.11;59.62
59873;BME280;50750;51.636;4.948;2022-12-19T04:23:29;101620.54;;;6.11;59.81
59873;BME280;50750;51.636;4.948;2022-12-19T04:26:00;101616.53;;;6.12;59.64
59873;BME280;50750;51.636;4.948;2022-12-19T04:28:33;101620.36;;;6.12;59.95
59873;BME280;50750;51.636;4.948;2022-12-19T04:31:00;101627.14;;;6.12;59.60
59873;BME280;50750;51.636;4.948;2022-12-19T04:33:27;101630.27;;;6.13;59.70
59873;BME280;50750;51.636;4.948;2022-12-19T04:35:53;101626.11;;;6.13;59.76
59873;BME280;50750;51.636;4.948;2022-12-19T04:38:20;101622.47;;;6.13;59.66
59873;BME280;50750;51.636;4.948;2022-12-19T04:40:46;101623.48;;;6.14;59.74
59873;BME280;50750;51.636;4.948;2022-12-19T04:43:12;101622.45;;;6.15;59.74
59873;BME280;50750;51.636;4.948;2022-12-19T04:45:41;101622.45;;;6.15;59.63
59873;BME280;50750;51.636;4.948;2022-12-19T04:48:07;101614.47;;;6.16;59.82
59873;BME280;50750;51.636;4.948;2022-12-19T04:50:33;101616.02;;;6.16;59.67
59873;BME280;50750;51.636;4.948;2022-12-19T04:53:00;101609.76;;;6.17;59.64
59873;BME280;50750;51.636;4.948;2022-12-19T04:55:26;101616.02;;;6.16;59.65
59873;BME280;50750;51.636;4.948;2022-12-19T04:57:52;101617.93;;;6.17;59.91
59873;BME280;50750;51.636;4.948;2022-12-19T05:00:18;101614.46;;;6.18;59.62
59873;BME280;50750;51.636;4.948;2022-12-19T05:02:44;101618.11;;;6.17;59.92
59873;BME280;50750;51.636;4.948;2022-12-19T05:05:10;101618.64;;;6.18;59.79
59873;BME280;50750;51.636;4.948;2022-12-19T05:07:36;101621.94;;;6.19;59.75
59873;BME280;50750;51.636;4.948;2022-12-19T05:10:03;101615.16;;;6.19;59.78
59873;BME280;50750;51.636;4.948;2022-12-19T05:12:29;101609.41;;;6.19;59.67
59873;BME280;50750;51.636;4.948;2022-12-19T05:14:55;101611.48;;;6.20;59.93
59873;BME280;50750;51.636;4.948;2022-12-19T05:17:20;101596.54;;;6.20;59.72
59873;BME280;50750;51.636;4.948;2022-12-19T05:19:46;101597.08;;;6.21;59.84
59873;BME280;50750;51.636;4.948;2022-12-19T05:22:12;101601.41;;;6.22;60.06
59873;BME280;50750;51.636;4.948;2022-12-19T05:24:38;101595.67;;;6.22;59.87
59873;BME280;50750;51.636;4.948;2022-12-19T05:27:04;101591.49;;;6.23;60.25
59873;BME280;50750;51.636;4.948;2022-12-19T05:29:30;101589.41;;;6.23;60.16
59873;BME280;50750;51.636;4.948;2022-12-19T05:31:55;101578.63;;;6.23;60.42
59873;BME280;50750;51.636;4.948;2022-12-19T05:34:23;101585.23;;;6.23;60.11
59873;BME280;50750;51.636;4.948;2022-12-19T05:36:49;101589.59;;;6.23;60.68
59873;BME280;50750;51.636;4.948;2022-12-19T05:39:15;101598.12;;;6.24;60.51
59873;BME280;50750;51.636;4.948;2022-12-19T05:41:41;101596.02;;;6.26;60.32
59873;BME280;50750;51.636;4.948;2022-12-19T05:44:08;101596.19;;;6.28;60.13
59873;BME280;50750;51.636;4.948;2022-12-19T05:46:34;101600.73;;;6.29;60.37
59873;BME280;50750;51.636;4.948;2022-12-19T05:49:00;101600.52;;;6.31;60.20
59873;BME280;50750;51.636;4.948;2022-12-19T05:51:26;101608.38;;;6.32;60.06
59873;BME280;50750;51.636;4.948;2022-12-19T05:53:52;101605.75;;;6.34;59.95
59873;BME280;50750;51.636;4.948;2022-12-19T05:56:20;101604.89;;;6.35;60.12
59873;BME280;50750;51.636;4.948;2022-12-19T05:58:46;101604.71;;;6.35;60.13
59873;BME280;50750;51.636;4.948;2022-12-19T06:01:20;101605.41;;;6.37;60.23
59873;BME280;50750;51.636;4.948;2022-12-19T06:03:47;101608.54;;;6.37;60.19
59873;BME280;50750;51.636;4.948;2022-12-19T06:06:15;101610.80;;;6.38;60.03
59873;BME280;50750;51.636;4.948;2022-12-19T06:08:42;101610.10;;;6.39;60.04
59873;BME280;50750;51.636;4.948;2022-12-19T06:11:10;101607.83;;;6.39;60.28
59873;BME280;50750;51.636;4.948;2022-12-19T06:13:37;101603.84;;;6.39;59.98
59873;BME280;50750;51.636;4.948;2022-12-19T06:16:07;101596.53;;;6.39;59.75
59873;BME280;50750;51.636;4.948;2022-12-19T06:18:33;101593.76;;;6.40;60.17
59873;BME280;50750;51.636;4.948;2022-12-19T06:21:02;101597.41;;;6.40;60.07
59873;BME280;50750;51.636;4.948;2022-12-19T06:23:30;101600.20;;;6.39;59.97
59873;BME280;50750;51.636;4.948;2022-12-19T06:25:58;101603.50;;;6.40;60.09
59873;BME280;50750;51.636;4.948;2022-12-19T06:28:25;101602.10;;;6.40;60.13
59873;BME280;50750;51.636;4.948;2022-12-19T06:30:54;101606.63;;;6.40;60.20
59873;BME280;50750;51.636;4.948;2022-12-19T06:33:20;101604.89;;;6.40;60.14
59873;BME280;50750;51.636;4.948;2022-12-19T06:35:46;101614.98;;;6.40;60.34
59873;BME280;50750;51.636;4.948;2022-12-19T06:38:12;101609.23;;;6.41;60.34
59873;BME280;50750;51.636;4.948;2022-12-19T06:40:43;101608.53;;;6.41;60.38
59873;BME280;50750;51.636;4.948;2022-12-19T06:43:27;101620.19;;;6.41;60.34
59873;BME280;50750;51.636;4.948;2022-12-19T06:45:56;101608.88;;;6.40;60.29
59873;BME280;50750;51.636;4.948;2022-12-19T06:48:23;101612.52;;;6.41;60.45
59873;BME280;50750;51.636;4.948;2022-12-19T06:50:48;101608.02;;;6.41;60.59
59873;BME280;50750;51.636;4.948;2022-12-19T06:53:14;101606.45;;;6.40;60.66
59873;BME280;50750;51.636;4.948;2022-12-19T06:55:40;101608.36;;;6.40;60.53
59873;BME280;50750;51.636;4.948;2022-12-19T06:58:06;101607.14;;;6.40;60.49
59873;BME280;50750;51.636;4.948;2022-12-19T07:00:34;101606.79;;;6.41;60.48
59873;BME280;50750;51.636;4.948;2022-12-19T07:03:01;101601.22;;;6.41;60.61
59873;BME280;50750;51.636;4.948;2022-12-19T07:05:30;101604.86;;;6.41;60.61
59873;BME280;50750;51.636;4.948;2022-12-19T07:07:56;101603.30;;;6.42;60.45
59873;BME280;50750;51.636;4.948;2022-12-19T07:10:22;101608.19;;;6.43;60.68
59873;BME280;50750;51.636;4.948;2022-12-19T07:12:47;101604.71;;;6.43;60.65
59873;BME280;50750;51.636;4.948;2022-12-19T07:15:13;101610.63;;;6.43;60.65
59873;BME280;50750;51.636;4.948;2022-12-19T07:17:39;101618.80;;;6.43;60.48
59873;BME280;50750;51.636;4.948;2022-12-19T07:20:06;101612.19;;;6.44;60.54
59873;BME280;50750;51.636;4.948;2022-12-19T07:22:33;101613.39;;;6.44;60.51
59873;BME280;50750;51.636;4.948;2022-12-19T07:25:01;101613.40;;;6.44;60.54
59873;BME280;50750;51.636;4.948;2022-12-19T07:27:29;101614.62;;;6.44;60.53
59873;BME280;50750;51.636;4.948;2022-12-19T07:29:55;101613.23;;;6.45;60.59
59873;BME280;50750;51.636;4.948;2022-12-19T07:32:21;101614.98;;;6.45;60.59
59873;BME280;50750;51.636;4.948;2022-12-19T07:34:47;101620.88;;;6.46;60.61
59873;BME280;50750;51.636;4.948;2022-12-19T07:37:13;101620.88;;;6.46;60.71
59873;BME280;50750;51.636;4.948;2022-12-19T07:39:39;101619.14;;;6.46;60.52
59873;BME280;50750;51.636;4.948;2022-12-19T07:42:05;101622.09;;;6.47;60.56
59873;BME280;50750;51.636;4.948;2022-12-19T07:44:31;101628.52;;;6.47;60.60
59873;BME280;50750;51.636;4.948;2022-12-19T07:46:57;101637.05;;;6.47;60.69
59873;BME280;50750;51.636;4.948;2022-12-19T07:49:22;101640.54;;;6.48;60.62
59873;BME280;50750;51.636;4.948;2022-12-19T07:51:48;101646.45;;;6.48;60.63
59873;BME280;50750;51.636;4.948;2022-12-19T07:54:14;101643.67;;;6.49;60.55
59873;BME280;50750;51.636;4.948;2022-12-19T07:56:40;101647.33;;;6.49;60.72
59873;BME280;50750;51.636;4.948;2022-12-19T07:59:06;101650.27;;;6.49;60.71
59873;BME280;50750;51.636;4.948;2022-12-19T08:01:32;101647.49;;;6.49;60.75
59873;BME280;50750;51.636;4.948;2022-12-19T08:03:58;101647.66;;;6.49;60.65
59873;BME280;50750;51.636;4.948;2022-12-19T08:06:23;101646.98;;;6.50;60.91
59873;BME280;50750;51.636;4.948;2022-12-19T08:08:50;101648.38;;;6.50;60.70
59873;BME280;50750;51.636;4.948;2022-12-19T08:11:18;101649.23;;;6.50;60.70
59873;BME280;50750;51.636;4.948;2022-12-19T08:13:52;101651.51;;;6.51;60.91
59873;BME280;50750;51.636;4.948;2022-12-19T08:16:18;101646.29;;;6.50;60.67
59873;BME280;50750;51.636;4.948;2022-12-19T08:18:44;101648.20;;;6.51;60.84
59873;BME280;50750;51.636;4.948;2022-12-19T08:21:10;101650.63;;;6.51;60.81
59873;BME280;50750;51.636;4.948;2022-12-19T08:23:36;101650.10;;;6.52;60.85
59873;BME280;50750;51.636;4.948;2022-12-19T08:26:10;101652.71;;;6.53;60.76
59873;BME280;50750;51.636;4.948;2022-12-19T08:28:36;101651.66;;;6.53;60.66
59873;BME280;50750;51.636;4.948;2022-12-19T08:31:06;101657.06;;;6.53;60.85
59873;BME280;50750;51.636;4.948;2022-12-19T08:33:33;101656.54;;;6.54;60.76
59873;BME280;50750;51.636;4.948;2022-12-19T08:36:05;101660.20;;;6.54;60.66
59873;BME280;50750;51.636;4.948;2022-12-19T08:38:33;101655.67;;;6.54;60.81
59873;BME280;50750;51.636;4.948;2022-12-19T08:40:59;101659.14;;;6.55;60.79
59873;BME280;50750;51.636;4.948;2022-12-19T08:43:26;101660.71;;;6.54;60.87
59873;BME280;50750;51.636;4.948;2022-12-19T08:45:53;101660.89;;;6.56;60.88
59873;BME280;50750;51.636;4.948;2022-12-19T08:48:19;101659.15;;;6.58;60.86
59873;BME280;50750;51.636;4.948;2022-12-19T08:51:12;101663.16;;;6.61;60.82
59873;BME280;50750;51.636;4.948;2022-12-19T08:53:40;101663.66;;;6.63;60.69
59873;BME280;50750;51.636;4.948;2022-12-19T08:56:10;101668.71;;;6.64;60.78
59873;BME280;50750;51.636;4.948;2022-12-19T08:58:36;101675.33;;;6.67;60.72
59873;BME280;50750;51.636;4.948;2022-12-19T09:01:06;101679.49;;;6.68;60.65
59873;BME280;50750;51.636;4.948;2022-12-19T09:03:38;101674.98;;;6.69;60.83
59873;BME280;50750;51.636;4.948;2022-12-19T09:06:07;101677.77;;;6.70;60.57
59873;BME280;50750;51.636;4.948;2022-12-19T09:08:34;101680.71;;;6.71;60.65
59873;BME280;50750;51.636;4.948;2022-12-19T09:11:03;101684.89;;;6.71;60.50
59873;BME280;50750;51.636;4.948;2022-12-19T09:13:30;101684.02;;;6.73;60.63
59873;BME280;50750;51.636;4.948;2022-12-19T09:16:00;101683.85;;;6.73;60.70
59873;BME280;50750;51.636;4.948;2022-12-19T09:18:28;101691.85;;;6.73;60.75
59873;BME280;50750;51.636;4.948;2022-12-19T09:20:55;101686.98;;;6.73;60.67
59873;BME280;50750;51.636;4.948;2022-12-19T09:23:22;101683.48;;;6.73;60.67
59873;BME280;50750;51.636;4.948;2022-12-19T09:25:48;101680.35;;;6.74;60.78
59873;BME280;50750;51.636;4.948;2022-12-19T09:28:14;101680.18;;;6.74;60.67
59873;BME280;50750;51.636;4.948;2022-12-19T09:30:40;101683.15;;;6.74;60.58
59873;BME280;50750;51.636;4.948;2022-12-19T09:33:06;101681.92;;;6.74;60.72
59873;BME280;50750;51.636;4.948;2022-12-19T09:35:32;101680.52;;;6.74;60.72
59873;BME280;50750;51.636;4.948;2022-12-19T09:37:58;101674.45;;;6.75;60.73
59873;BME280;50750;51.636;4.948;2022-12-19T09:40:26;101678.11;;;6.75;60.83
59873;BME280;50750;51.636;4.948;2022-12-19T09:45:45;101680.18;;;6.74;60.69
59873;BME280;50750;51.636;4.948;2022-12-19T09:48:16;101684.88;;;6.74;60.81
59873;BME280;50750;51.636;4.948;2022-12-19T09:56:14;101680.70;;;6.74;60.89
59873;BME280;50750;51.636;4.948;2022-12-19T09:58:55;101681.57;;;6.74;60.77
59873;BME280;50750;51.636;4.948;2022-12-19T10:01:29;101681.05;;;6.74;60.80
59873;BME280;50750;51.636;4.948;2022-12-19T10:04:12;101681.58;;;6.74;60.90
59873;BME280;50750;51.636;4.948;2022-12-19T10:06:39;101686.63;;;6.75;60.85
59873;BME280;50750;51.636;4.948;2022-12-19T10:09:11;101685.59;;;6.75;60.91
59873;BME280;50750;51.636;4.948;2022-12-19T10:11:48;101681.59;;;6.75;60.98
59873;BME280;50750;51.636;4.948;2022-12-19T10:22:40;101688.02;;;6.77;60.94
59873;BME280;50750;51.636;4.948;2022-12-19T10:30:21;101693.42;;;6.77;60.81
59873;BME280;50750;51.636;4.948;2022-12-19T10:33:22;101695.16;;;6.78;60.91
59873;BME280;50750;51.636;4.948;2022-12-19T10:35:56;101692.20;;;6.78;60.94
59873;BME280;50750;51.636;4.948;2022-12-19T10:38:30;101688.71;;;6.78;60.98
59873;BME280;50750;51.636;4.948;2022-12-19T10:41:23;101693.42;;;6.78;61.22
59873;BME280;50750;51.636;4.948;2022-12-19T10:44:08;101692.89;;;6.79;61.23
59873;BME280;50750;51.636;4.948;2022-12-19T10:46:39;101690.10;;;6.81;61.17
59873;BME280;50750;51.636;4.948;2022-12-19T10:49:16;101689.92;;;6.83;61.12
59873;BME280;50750;51.636;4.948;2022-12-19T10:54:35;101689.74;;;6.86;61.24
59873;BME280;50750;51.636;4.948;2022-12-19T10:59:54;101677.21;;;6.89;61.00
59873;BME280;50750;51.636;4.948;2022-12-19T11:02:32;101674.42;;;6.91;61.15
59873;BME280;50750;51.636;4.948;2022-12-19T11:04:59;101666.59;;;6.92;61.06
59873;BME280;50750;51.636;4.948;2022-12-19T11:07:24;101664.83;;;6.92;61.32
59873;BME280;50750;51.636;4.948;2022-12-19T11:09:50;101660.84;;;6.93;61.19
59873;BME280;50750;51.636;4.948;2022-12-19T11:12:18;101661.70;;;6.93;61.09
59873;BME280;50750;51.636;4.948;2022-12-19T11:15:15;101661.71;;;6.94;60.89
59873;BME280;50750;51.636;4.948;2022-12-19T11:17:41;101660.65;;;6.95;60.86
59873;BME280;50750;51.636;4.948;2022-12-19T11:20:19;101656.12;;;6.95;60.94
59873;BME280;50750;51.636;4.948;2022-12-19T11:22:55;101660.66;;;6.95;60.95
59873;BME280;50750;51.636;4.948;2022-12-19T11:25:31;101656.81;;;6.95;60.93
59873;BME280;50750;51.636;4.948;2022-12-19T11:28:03;101658.38;;;6.96;61.01
59873;BME280;50750;51.636;4.948;2022-12-19T11:30:29;101655.95;;;6.96;60.98
59873;BME280;50750;51.636;4.948;2022-12-19T11:33:14;101653.50;;;6.96;61.00
59873;BME280;50750;51.636;4.948;2022-12-19T11:35:55;101652.46;;;6.95;61.08
59873;BME280;50750;51.636;4.948;2022-12-19T11:38:49;101656.30;;;6.95;61.07
59873;BME280;50750;51.636;4.948;2022-12-19T11:41:22;101656.98;;;6.95;61.12
59873;BME280;50750;51.636;4.948;2022-12-19T11:44:04;101651.24;;;6.95;61.16
59873;BME280;50750;51.636;4.948;2022-12-19T11:46:45;101649.85;;;6.95;60.84
59873;BME280;50750;51.636;4.948;2022-12-19T11:49:27;101641.14;;;6.95;61.26
59873;BME280;50750;51.636;4.948;2022-12-19T11:52:05;101645.67;;;6.95;61.21
59873;BME280;50750;51.636;4.948;2022-12-19T11:54:36;101643.41;;;6.96;61.31
59873;BME280;50750;51.636;4.948;2022-12-19T11:57:09;101646.72;;;6.96;61.13
59873;BME280;50750;51.636;4.948;2022-12-19T11:59:37;101648.82;;;6.97;61.25
59873;BME280;50750;51.636;4.948;2022-12-19T12:02:42;101643.59;;;6.97;61.27
59873;BME280;50750;51.636;4.948;2022-12-19T12:08:31;101632.27;;;6.98;61.37
59873;BME280;50750;51.636;4.948;2022-12-19T12:17:05;101618.67;;;6.99;61.21
59873;BME280;50750;51.636;4.948;2022-12-19T12:22:35;101602.48;;;6.99;61.29
59873;BME280;50750;51.636;4.948;2022-12-19T12:36:30;101590.98;;;7.01;61.39
59873;BME280;50750;51.636;4.948;2022-12-19T12:39:11;101590.46;;;7.01;61.20
59873;BME280;50750;51.636;4.948;2022-12-19T12:44:38;101581.23;;;7.01;61.42
59873;BME280;50750;51.636;4.948;2022-12-19T12:47:15;101579.33;;;7.02;61.43
59873;BME280;50750;51.636;4.948;2022-12-19T12:49:54;101570.08;;;7.03;61.39
59873;BME280;50750;51.636;4.948;2022-12-19T12:52:31;101563.98;;;7.03;61.46
59873;BME280;50750;51.636;4.948;2022-12-19T12:54:59;101565.02;;;7.03;61.30
59873;BME280;50750;51.636;4.948;2022-12-19T13:03:13;101549.69;;;7.06;61.37
59873;BME280;50750;51.636;4.948;2022-12-19T13:05:53;101546.37;;;7.09;61.24
59873;BME280;50750;51.636;4.948;2022-12-19T13:08:37;101542.53;;;7.11;61.19
59873;BME280;50750;51.636;4.948;2022-12-19T13:11:10;101545.14;;;7.13;61.37
59873;BME280;50750;51.636;4.948;2022-12-19T13:13:57;101546.52;;;7.15;61.33
59873;BME280;50750;51.636;4.948;2022-12-19T13:19:20;101548.05;;;7.18;61.12
59873;BME280;50750;51.636;4.948;2022-12-19T13:24:52;101539.00;;;7.20;61.08
59873;BME280;50750;51.636;4.948;2022-12-19T13:33:05;101527.67;;;7.22;61.26
59873;BME280;50750;51.636;4.948;2022-12-19T13:37:45;101527.67;;;7.23;61.22
59873;BME280;50750;51.636;4.948;2022-12-19T13:45:56;101524.88;;;7.23;61.17
59873;BME280;50750;51.636;4.948;2022-12-19T13:48:45;101521.05;;;7.23;61.19
59873;BME280;50750;51.636;4.948;2022-12-19T13:51:13;101508.50;;;7.23;61.35
59873;BME280;50750;51.636;4.948;2022-12-19T13:53:41;101505.55;;;7.23;61.24
59873;BME280;50750;51.636;4.948;2022-12-19T13:56:15;101509.19;;;7.24;61.17
59873;BME280;50750;51.636;4.948;2022-12-19T13:58:56;101510.23;;;7.24;61.33
59873;BME280;50750;51.636;4.948;2022-12-19T14:01:28;101514.06;;;7.24;61.20
59873;BME280;50750;51.636;4.948;2022-12-19T14:03:57;101522.44;;;7.24;61.37
59873;BME280;50750;51.636;4.948;2022-12-19T14:06:27;101519.30;;;7.24;61.30
59873;BME280;50750;51.636;4.948;2022-12-19T14:08:59;101506.92;;;7.24;60.98
59873;BME280;50750;51.636;4.948;2022-12-19T14:11:27;101494.21;;;7.24;61.33
59873;BME280;50750;51.636;4.948;2022-12-19T14:13:57;101483.58;;;7.24;61.24
59873;BME280;50750;51.636;4.948;2022-12-19T14:16:43;101477.66;;;7.25;61.24
59873;BME280;50750;51.636;4.948;2022-12-19T14:19:24;101470.52;;;7.24;61.28
59873;BME280;50750;51.636;4.948;2022-12-19T14:21:50;101471.21;;;7.25;61.27
59873;BME280;50750;51.636;4.948;2022-12-19T14:24:19;101468.42;;;7.25;61.36
59873;BME280;50750;51.636;4.948;2022-12-19T14:26:58;101461.80;;;7.26;61.31
59873;BME280;50750;51.636;4.948;2022-12-19T14:29:32;101464.59;;;7.26;61.25
59873;BME280;50750;51.636;4.948;2022-12-19T14:32:00;101471.20;;;7.26;61.32
59873;BME280;50750;51.636;4.948;2022-12-19T14:34:30;101471.19;;;7.27;61.29
59873;BME280;50750;51.636;4.948;2022-12-19T14:36:57;101480.77;;;7.27;61.14
59873;BME280;50750;51.636;4.948;2022-12-19T14:39:29;101491.04;;;7.27;61.22
59873;BME280;50750;51.636;4.948;2022-12-19T14:42:05;101482.50;;;7.28;61.17
59873;BME280;50750;51.636;4.948;2022-12-19T14:44:52;101483.55;;;7.28;61.22
59873;BME280;50750;51.636;4.948;2022-12-19T14:47:32;101480.94;;;7.28;61.24
59873;BME280;50750;51.636;4.948;2022-12-19T14:49:59;101491.75;;;7.29;61.30
59873;BME280;50750;51.636;4.948;2022-12-19T14:55:26;101505.51;;;7.29;61.29
59873;BME280;50750;51.636;4.948;2022-12-19T14:57:54;101511.60;;;7.29;61.25